sensor_id;sensor_type;location;lat;lon;timestamp;temperature;humidity
2889;DHT22;1453;42.708;23.282;2022-12-18T00:01:36;6.00;99.90
2889;DHT22;1453;42.708;23.282;2022-12-18T00:04:04;5.80;99.90
2889;DHT22;1453;42.708;23.282;2022-12-18T00:06:32;5.70;99.90
2889;DHT22;1453;42.708;23.282;2022-12-18T00:09:00;5.80;99.90
2889;DHT22;1453;42.708;23.282;2022-12-18T00:11:29;5.80;99.90
2889;DHT22;1453;42.708;23.282;2022-12-18T00:13:57;5.80;99.90
2889;DHT22;1453;42.708;23.282;2022-12-18T00:16:26;5.80;99.90
2889;DHT22;1453;42.708;23.282;2022-12-18T00:18:54;5.80;99.90
2889;DHT22;1453;42.708;23.282;2022-12-18T00:21:20;5.80;99.90
2889;DHT22;1453;42.708;23.282;2022-12-18T00:23:48;5.70;99.90
2889;DHT22;1453;42.708;23.282;2022-12-18T00:26:20;5.60;99.90
2889;DHT22;1453;42.708;23.282;2022-12-18T00:28:48;5.60;99.90
2889;DHT22;1453;42.708;23.282;2022-12-18T00:31:17;5.60;99.90
2889;DHT22;1453;42.708;23.282;2022-12-18T00:33:45;5.60;99.90
2889;DHT22;1453;42.708;23.282;2022-12-18T00:36:19;5.50;99.90
2889;DHT22;1453;42.708;23.282;2022-12-18T00:38:47;5.50;99.90
2889;DHT22;1453;42.708;23.282;2022-12-18T00:41:15;5.50;99.90
2889;DHT22;1453;42.708;23.282;2022-12-18T00:44:05;5.50;99.90
2889;DHT22;1453;42.708;23.282;2022-12-18T00:46:32;5.50;99.90
2889;DHT22;1453;42.708;23.282;2022-12-18T00:49:00;5.40;99.90
2889;DHT22;1453;42.708;23.282;2022-12-18T00:51:26;5.40;99.90
2889;DHT22;1453;42.708;23.282;2022-12-18T00:53:52;5.30;99.90
2889;DHT22;1453;42.708;23.282;2022-12-18T00:56:18;5.30;99.90
2889;DHT22;1453;42.708;23.282;2022-12-18T00:58:47;5.10;99.90
2889;DHT22;1453;42.708;23.282;2022-12-18T01:01:13;5.20;99.90
2889;DHT22;1453;42.708;23.282;2022-12-18T01:03:38;5.10;99.90
2889;DHT22;1453;42.708;23.282;2022-12-18T01:06:09;5.20;99.90
2889;DHT22;1453;42.708;23.282;2022-12-18T01:08:37;5.20;99.90
2889;DHT22;1453;42.708;23.282;2022-12-18T01:11:11;5.30;99.90
2889;DHT22;1453;42.708;23.282;2022-12-18T01:13:43;5.30;99.90
2889;DHT22;1453;42.708;23.282;2022-12-18T01:16:11;5.20;99.90
2889;DHT22;1453;42.708;23.282;2022-12-18T01:18:38;5.10;99.90
2889;DHT22;1453;42.708;23.282;2022-12-18T01:21:09;4.90;99.90
2889;DHT22;1453;42.708;23.282;2022-12-18T01:23:37;5.00;99.90
2889;DHT22;1453;42.708;23.282;2022-12-18T01:26:08;4.90;99.90
2889;DHT22;1453;42.708;23.282;2022-12-18T01:28:35;4.80;99.90
2889;DHT22;1453;42.708;23.282;2022-12-18T01:33:47;4.90;99.90
2889;DHT22;1453;42.708;23.282;2022-12-18T01:36:22;4.70;99.90
2889;DHT22;1453;42.708;23.282;2022-12-18T01:38:50;4.80;99.90
2889;DHT22;1453;42.708;23.282;2022-12-18T01:41:22;4.70;99.90
2889;DHT22;1453;42.708;23.282;2022-12-18T01:43:56;4.80;99.90
2889;DHT22;1453;42.708;23.282;2022-12-18T01:46:26;4.80;99.90
2889;DHT22;1453;42.708;23.282;2022-12-18T01:49:00;4.80;99.90
2889;DHT22;1453;42.708;23.282;2022-12-18T01:51:30;4.80;99.90
2889;DHT22;1453;42.708;23.282;2022-12-18T01:53:56;4.70;99.90
2889;DHT22;1453;42.708;23.282;2022-12-18T01:56:23;4.70;99.90
2889;DHT22;1453;42.708;23.282;2022-12-18T01:59:09;4.60;99.90
2889;DHT22;1453;42.708;23.282;2022-12-18T02:01:36;4.40;99.90
2889;DHT22;1453;42.708;23.282;2022-12-18T02:04:26;4.50;99.90
2889;DHT22;1453;42.708;23.282;2022-12-18T02:10:24;4.60;99.90
2889;DHT22;1453;42.708;23.282;2022-12-18T02:15:48;4.60;99.90
2889;DHT22;1453;42.708;23.282;2022-12-18T02:18:28;4.50;99.90
2889;DHT22;1453;42.708;23.282;2022-12-18T02:29:20;4.40;99.90
2889;DHT22;1453;42.708;23.282;2022-12-18T02:31:52;4.50;99.90
2889;DHT22;1453;42.708;23.282;2022-12-18T02:34:23;4.60;99.90
2889;DHT22;1453;42.708;23.282;2022-12-18T02:36:53;4.50;99.90
2889;DHT22;1453;42.708;23.282;2022-12-18T02:39:21;4.40;99.90
2889;DHT22;1453;42.708;23.282;2022-12-18T02:41:48;4.50;99.90
2889;DHT22;1453;42.708;23.282;2022-12-18T02:44:14;4.20;99.90
2889;DHT22;1453;42.708;23.282;2022-12-18T02:46:46;4.30;99.90
2889;DHT22;1453;42.708;23.282;2022-12-18T02:49:44;4.40;99.90
2889;DHT22;1453;42.708;23.282;2022-12-18T02:57:36;4.40;99.90
2889;DHT22;1453;42.708;23.282;2022-12-18T03:00:16;4.50;99.90
2889;DHT22;1453;42.708;23.282;2022-12-18T03:05:19;4.40;99.90
2889;DHT22;1453;42.708;23.282;2022-12-18T03:08:02;4.50;99.90
2889;DHT22;1453;42.708;23.282;2022-12-18T03:10:34;4.40;99.90
2889;DHT22;1453;42.708;23.282;2022-12-18T03:13:15;4.40;99.90
2889;DHT22;1453;42.708;23.282;2022-12-18T03:16:03;4.30;99.90
2889;DHT22;1453;42.708;23.282;2022-12-18T03:18:39;4.40;99.90
2889;DHT22;1453;42.708;23.282;2022-12-18T03:21:11;4.50;99.90
2889;DHT22;1453;42.708;23.282;2022-12-18T03:23:42;4.30;99.90
2889;DHT22;1453;42.708;23.282;2022-12-18T03:26:13;4.40;99.90
2889;DHT22;1453;42.708;23.282;2022-12-18T03:28:51;4.40;99.90
2889;DHT22;1453;42.708;23.282;2022-12-18T03:31:23;4.60;99.90
2889;DHT22;1453;42.708;23.282;2022-12-18T03:33:57;4.50;99.90
2889;DHT22;1453;42.708;23.282;2022-12-18T03:36:25;4.50;99.90
2889;DHT22;1453;42.708;23.282;2022-12-18T03:38:52;4.40;99.90
2889;DHT22;1453;42.708;23.282;2022-12-18T03:41:34;4.50;99.90
2889;DHT22;1453;42.708;23.282;2022-12-18T03:44:15;4.50;99.90
2889;DHT22;1453;42.708;23.282;2022-12-18T03:49:40;4.30;99.90
2889;DHT22;1453;42.708;23.282;2022-12-18T03:52:28;4.40;99.90
2889;DHT22;1453;42.708;23.282;2022-12-18T03:54:57;4.20;99.90
2889;DHT22;1453;42.708;23.282;2022-12-18T03:57:26;4.10;99.90
2889;DHT22;1453;42.708;23.282;2022-12-18T04:00:05;4.30;99.90
2889;DHT22;1453;42.708;23.282;2022-12-18T04:02:34;4.40;99.90
2889;DHT22;1453;42.708;23.282;2022-12-18T04:05:05;4.30;99.90
2889;DHT22;1453;42.708;23.282;2022-12-18T04:07:32;4.10;99.90
2889;DHT22;1453;42.708;23.282;2022-12-18T04:10:00;4.10;99.90
2889;DHT22;1453;42.708;23.282;2022-12-18T04:12:29;4.10;99.90
2889;DHT22;1453;42.708;23.282;2022-12-18T04:14:55;4.10;99.90
2889;DHT22;1453;42.708;23.282;2022-12-18T04:17:21;4.00;99.90
2889;DHT22;1453;42.708;23.282;2022-12-18T04:19:47;4.20;99.90
2889;DHT22;1453;42.708;23.282;2022-12-18T04:22:13;4.20;99.90
2889;DHT22;1453;42.708;23.282;2022-12-18T04:24:39;4.30;99.90
2889;DHT22;1453;42.708;23.282;2022-12-18T04:27:06;4.30;99.90
2889;DHT22;1453;42.708;23.282;2022-12-18T04:29:32;4.20;99.90
2889;DHT22;1453;42.708;23.282;2022-12-18T04:31:58;4.20;99.90
2889;DHT22;1453;42.708;23.282;2022-12-18T04:34:24;4.10;99.90
2889;DHT22;1453;42.708;23.282;2022-12-18T04:36:49;4.00;99.90
2889;DHT22;1453;42.708;23.282;2022-12-18T04:39:15;3.80;99.90
2889;DHT22;1453;42.708;23.282;2022-12-18T04:41:42;3.80;99.90
2889;DHT22;1453;42.708;23.282;2022-12-18T04:44:08;3.70;99.90
2889;DHT22;1453;42.708;23.282;2022-12-18T04:46:34;3.90;99.90
2889;DHT22;1453;42.708;23.282;2022-12-18T04:48:59;3.90;99.90
2889;DHT22;1453;42.708;23.282;2022-12-18T04:51:25;3.80;99.90
2889;DHT22;1453;42.708;23.282;2022-12-18T04:53:51;3.90;99.90
2889;DHT22;1453;42.708;23.282;2022-12-18T04:56:17;3.90;99.90
2889;DHT22;1453;42.708;23.282;2022-12-18T04:58:44;3.90;99.90
2889;DHT22;1453;42.708;23.282;2022-12-18T05:01:12;3.90;99.90
2889;DHT22;1453;42.708;23.282;2022-12-18T05:03:39;3.90;99.90
2889;DHT22;1453;42.708;23.282;2022-12-18T05:06:06;3.70;99.90
2889;DHT22;1453;42.708;23.282;2022-12-18T05:08:32;3.70;99.90
2889;DHT22;1453;42.708;23.282;2022-12-18T05:13:33;3.70;99.90
2889;DHT22;1453;42.708;23.282;2022-12-18T05:15:59;3.70;99.90
2889;DHT22;1453;42.708;23.282;2022-12-18T05:18:25;3.60;99.90
2889;DHT22;1453;42.708;23.282;2022-12-18T05:20:53;3.80;99.90
2889;DHT22;1453;42.708;23.282;2022-12-18T05:23:20;3.50;99.90
2889;DHT22;1453;42.708;23.282;2022-12-18T05:26:06;3.60;99.90
2889;DHT22;1453;42.708;23.282;2022-12-18T05:28:34;3.60;99.90
2889;DHT22;1453;42.708;23.282;2022-12-18T05:31:02;3.60;99.90
2889;DHT22;1453;42.708;23.282;2022-12-18T05:33:31;3.50;99.90
2889;DHT22;1453;42.708;23.282;2022-12-18T05:36:03;3.60;99.90
2889;DHT22;1453;42.708;23.282;2022-12-18T05:38:31;3.40;99.90
2889;DHT22;1453;42.708;23.282;2022-12-18T05:40:58;3.50;99.90
2889;DHT22;1453;42.708;23.282;2022-12-18T05:43:26;3.60;99.90
2889;DHT22;1453;42.708;23.282;2022-12-18T05:45:53;3.60;99.90
2889;DHT22;1453;42.708;23.282;2022-12-18T05:48:20;3.60;99.90
2889;DHT22;1453;42.708;23.282;2022-12-18T05:50:47;3.50;99.90
2889;DHT22;1453;42.708;23.282;2022-12-18T05:53:17;3.40;99.90
2889;DHT22;1453;42.708;23.282;2022-12-18T05:55:45;3.40;99.90
2889;DHT22;1453;42.708;23.282;2022-12-18T05:58:12;3.60;99.90
2889;DHT22;1453;42.708;23.282;2022-12-18T06:00:42;3.70;99.90
2889;DHT22;1453;42.708;23.282;2022-12-18T06:03:10;3.60;99.90
2889;DHT22;1453;42.708;23.282;2022-12-18T06:05:38;3.60;99.90
2889;DHT22;1453;42.708;23.282;2022-12-18T06:08:06;3.60;99.90
2889;DHT22;1453;42.708;23.282;2022-12-18T06:10:32;3.70;99.90
2889;DHT22;1453;42.708;23.282;2022-12-18T06:12:59;3.70;99.90
2889;DHT22;1453;42.708;23.282;2022-12-18T06:15:25;3.60;99.90
2889;DHT22;1453;42.708;23.282;2022-12-18T06:17:51;3.70;99.90
2889;DHT22;1453;42.708;23.282;2022-12-18T06:20:17;3.80;99.90
2889;DHT22;1453;42.708;23.282;2022-12-18T06:22:43;3.70;99.90
2889;DHT22;1453;42.708;23.282;2022-12-18T06:25:09;3.60;99.90
2889;DHT22;1453;42.708;23.282;2022-12-18T06:27:34;3.50;99.90
2889;DHT22;1453;42.708;23.282;2022-12-18T06:30:00;3.60;99.90
2889;DHT22;1453;42.708;23.282;2022-12-18T06:32:26;3.60;99.90
2889;DHT22;1453;42.708;23.282;2022-12-18T06:34:52;3.70;99.90
2889;DHT22;1453;42.708;23.282;2022-12-18T06:37:19;3.70;99.90
2889;DHT22;1453;42.708;23.282;2022-12-18T06:39:45;3.70;99.90
2889;DHT22;1453;42.708;23.282;2022-12-18T06:42:11;3.80;99.90
2889;DHT22;1453;42.708;23.282;2022-12-18T06:44:37;3.80;99.90
2889;DHT22;1453;42.708;23.282;2022-12-18T06:47:03;3.70;99.90
2889;DHT22;1453;42.708;23.282;2022-12-18T06:49:29;3.60;99.90
2889;DHT22;1453;42.708;23.282;2022-12-18T06:51:54;3.60;99.90
2889;DHT22;1453;42.708;23.282;2022-12-18T06:54:20;3.60;99.90
2889;DHT22;1453;42.708;23.282;2022-12-18T06:56:46;3.50;99.90
2889;DHT22;1453;42.708;23.282;2022-12-18T06:59:13;3.50;99.90
2889;DHT22;1453;42.708;23.282;2022-12-18T07:01:39;3.50;99.90
2889;DHT22;1453;42.708;23.282;2022-12-18T07:04:05;3.40;99.90
2889;DHT22;1453;42.708;23.282;2022-12-18T07:06:31;3.40;99.90
2889;DHT22;1453;42.708;23.282;2022-12-18T07:08:57;3.40;99.90
2889;DHT22;1453;42.708;23.282;2022-12-18T07:11:23;3.40;99.90
2889;DHT22;1453;42.708;23.282;2022-12-18T07:13:49;3.30;99.90
2889;DHT22;1453;42.708;23.282;2022-12-18T07:16:21;3.20;99.90
2889;DHT22;1453;42.708;23.282;2022-12-18T07:18:47;3.20;99.90
2889;DHT22;1453;42.708;23.282;2022-12-18T07:21:16;3.20;99.90
2889;DHT22;1453;42.708;23.282;2022-12-18T07:23:43;3.10;99.90
2889;DHT22;1453;42.708;23.282;2022-12-18T07:26:12;3.20;99.90
2889;DHT22;1453;42.708;23.282;2022-12-18T07:28:40;3.10;99.90
2889;DHT22;1453;42.708;23.282;2022-12-18T07:31:11;3.10;99.90
2889;DHT22;1453;42.708;23.282;2022-12-18T07:33:40;3.10;99.90
2889;DHT22;1453;42.708;23.282;2022-12-18T07:36:07;3.20;99.90
2889;DHT22;1453;42.708;23.282;2022-12-18T07:38:34;3.20;99.90
2889;DHT22;1453;42.708;23.282;2022-12-18T07:41:02;3.40;99.90
2889;DHT22;1453;42.708;23.282;2022-12-18T07:43:30;3.20;99.90
2889;DHT22;1453;42.708;23.282;2022-12-18T07:45:57;3.10;99.90
2889;DHT22;1453;42.708;23.282;2022-12-18T07:48:23;3.20;99.90
2889;DHT22;1453;42.708;23.282;2022-12-18T07:50:49;3.10;99.90
2889;DHT22;1453;42.708;23.282;2022-12-18T07:53:15;3.10;99.90
2889;DHT22;1453;42.708;23.282;2022-12-18T07:55:41;3.10;99.90
2889;DHT22;1453;42.708;23.282;2022-12-18T07:58:08;3.10;99.90
2889;DHT22;1453;42.708;23.282;2022-12-18T08:00:34;3.20;99.90
2889;DHT22;1453;42.708;23.282;2022-12-18T08:03:01;3.40;99.90
2889;DHT22;1453;42.708;23.282;2022-12-18T08:05:27;3.40;99.90
2889;DHT22;1453;42.708;23.282;2022-12-18T08:07:53;3.30;99.90
2889;DHT22;1453;42.708;23.282;2022-12-18T08:10:20;3.40;99.90
2889;DHT22;1453;42.708;23.282;2022-12-18T08:12:49;3.40;99.90
2889;DHT22;1453;42.708;23.282;2022-12-18T08:15:16;3.50;99.90
2889;DHT22;1453;42.708;23.282;2022-12-18T08:17:42;3.40;99.90
2889;DHT22;1453;42.708;23.282;2022-12-18T08:20:08;3.40;99.90
2889;DHT22;1453;42.708;23.282;2022-12-18T08:22:37;3.50;99.90
2889;DHT22;1453;42.708;23.282;2022-12-18T08:25:04;3.40;99.90
2889;DHT22;1453;42.708;23.282;2022-12-18T08:27:30;3.20;99.90
2889;DHT22;1453;42.708;23.282;2022-12-18T08:29:57;3.40;99.90
2889;DHT22;1453;42.708;23.282;2022-12-18T08:32:25;3.40;99.90
2889;DHT22;1453;42.708;23.282;2022-12-18T08:34:52;3.40;99.90
2889;DHT22;1453;42.708;23.282;2022-12-18T08:37:18;3.20;99.90
2889;DHT22;1453;42.708;23.282;2022-12-18T08:39:44;3.50;99.90
2889;DHT22;1453;42.708;23.282;2022-12-18T08:42:10;3.50;99.90
2889;DHT22;1453;42.708;23.282;2022-12-18T08:44:54;3.50;99.90
2889;DHT22;1453;42.708;23.282;2022-12-18T08:47:20;3.60;99.90
2889;DHT22;1453;42.708;23.282;2022-12-18T08:49:46;3.50;99.90
2889;DHT22;1453;42.708;23.282;2022-12-18T08:52:14;3.60;99.90
2889;DHT22;1453;42.708;23.282;2022-12-18T08:54:40;3.50;99.90
2889;DHT22;1453;42.708;23.282;2022-12-18T08:57:06;3.50;99.90
2889;DHT22;1453;42.708;23.282;2022-12-18T08:59:32;3.40;99.90
2889;DHT22;1453;42.708;23.282;2022-12-18T09:01:57;3.70;99.90
2889;DHT22;1453;42.708;23.282;2022-12-18T09:04:23;3.60;99.90
2889;DHT22;1453;42.708;23.282;2022-12-18T09:06:49;3.60;99.90
2889;DHT22;1453;42.708;23.282;2022-12-18T09:09:15;3.60;99.90
2889;DHT22;1453;42.708;23.282;2022-12-18T09:11:41;3.60;99.90
2889;DHT22;1453;42.708;23.282;2022-12-18T09:14:06;3.70;99.90
2889;DHT22;1453;42.708;23.282;2022-12-18T09:16:33;3.80;99.90
2889;DHT22;1453;42.708;23.282;2022-12-18T09:19:01;3.70;99.90
2889;DHT22;1453;42.708;23.282;2022-12-18T09:21:31;3.80;99.90
2889;DHT22;1453;42.708;23.282;2022-12-18T09:23:58;4.00;99.90
2889;DHT22;1453;42.708;23.282;2022-12-18T09:26:25;3.90;99.90
2889;DHT22;1453;42.708;23.282;2022-12-18T09:28:52;3.90;99.90
2889;DHT22;1453;42.708;23.282;2022-12-18T09:31:20;4.00;99.90
2889;DHT22;1453;42.708;23.282;2022-12-18T09:33:47;4.10;99.90
2889;DHT22;1453;42.708;23.282;2022-12-18T09:36:15;4.10;99.90
2889;DHT22;1453;42.708;23.282;2022-12-18T09:38:43;3.90;99.90
2889;DHT22;1453;42.708;23.282;2022-12-18T09:44:41;4.20;99.90
2889;DHT22;1453;42.708;23.282;2022-12-18T09:47:27;4.30;99.90
2889;DHT22;1453;42.708;23.282;2022-12-18T09:50:01;4.20;99.90
2889;DHT22;1453;42.708;23.282;2022-12-18T09:52:39;4.50;99.90
2889;DHT22;1453;42.708;23.282;2022-12-18T09:55:42;4.30;99.90
2889;DHT22;1453;42.708;23.282;2022-12-18T10:00:35;4.10;99.90
2889;DHT22;1453;42.708;23.282;2022-12-18T10:03:09;4.20;99.90
2889;DHT22;1453;42.708;23.282;2022-12-18T10:09:00;4.40;99.90
2889;DHT22;1453;42.708;23.282;2022-12-18T10:11:41;4.50;99.90
2889;DHT22;1453;42.708;23.282;2022-12-18T10:20:09;4.60;99.90
2889;DHT22;1453;42.708;23.282;2022-12-18T10:23:38;4.80;99.90
2889;DHT22;1453;42.708;23.282;2022-12-18T10:26:10;4.70;99.90
2889;DHT22;1453;42.708;23.282;2022-12-18T10:28:39;4.80;99.90
2889;DHT22;1453;42.708;23.282;2022-12-18T10:31:07;4.70;99.90
2889;DHT22;1453;42.708;23.282;2022-12-18T10:33:38;4.50;99.90
2889;DHT22;1453;42.708;23.282;2022-12-18T10:36:04;4.70;99.90
2889;DHT22;1453;42.708;23.282;2022-12-18T10:38:32;4.60;99.90
2889;DHT22;1453;42.708;23.282;2022-12-18T10:43:37;4.90;99.90
2889;DHT22;1453;42.708;23.282;2022-12-18T10:48:40;4.90;99.90
2889;DHT22;1453;42.708;23.282;2022-12-18T10:53:56;4.80;99.90
2889;DHT22;1453;42.708;23.282;2022-12-18T10:56:26;4.90;99.90
2889;DHT22;1453;42.708;23.282;2022-12-18T11:04:21;4.90;99.90
2889;DHT22;1453;42.708;23.282;2022-12-18T11:09:22;4.90;99.90
2889;DHT22;1453;42.708;23.282;2022-12-18T11:11:51;4.90;99.90
2889;DHT22;1453;42.708;23.282;2022-12-18T11:14:33;4.90;99.90
2889;DHT22;1453;42.708;23.282;2022-12-18T11:17:00;5.00;99.90
2889;DHT22;1453;42.708;23.282;2022-12-18T11:19:36;5.00;99.90
2889;DHT22;1453;42.708;23.282;2022-12-18T11:22:24;5.10;99.90
2889;DHT22;1453;42.708;23.282;2022-12-18T11:27:31;5.00;99.90
2889;DHT22;1453;42.708;23.282;2022-12-18T11:32:50;5.00;99.90
2889;DHT22;1453;42.708;23.282;2022-12-18T11:38:35;4.90;99.90
2889;DHT22;1453;42.708;23.282;2022-12-18T11:41:27;4.90;99.90
2889;DHT22;1453;42.708;23.282;2022-12-18T11:44:22;4.90;99.90
2889;DHT22;1453;42.708;23.282;2022-12-18T11:46:57;4.80;99.90
2889;DHT22;1453;42.708;23.282;2022-12-18T11:49:31;4.80;99.90
2889;DHT22;1453;42.708;23.282;2022-12-18T11:52:10;4.70;99.90
2889;DHT22;1453;42.708;23.282;2022-12-18T11:54:53;4.70;99.90
2889;DHT22;1453;42.708;23.282;2022-12-18T11:57:43;4.70;99.90
2889;DHT22;1453;42.708;23.282;2022-12-18T12:00:22;4.90;99.90
2889;DHT22;1453;42.708;23.282;2022-12-18T12:05:44;4.90;99.90
2889;DHT22;1453;42.708;23.282;2022-12-18T12:20:37;5.10;99.90
2889;DHT22;1453;42.708;23.282;2022-12-18T12:26:23;5.20;99.90
2889;DHT22;1453;42.708;23.282;2022-12-18T12:35:12;5.20;99.90
2889;DHT22;1453;42.708;23.282;2022-12-18T12:40:04;5.10;99.90
2889;DHT22;1453;42.708;23.282;2022-12-18T12:45:21;5.10;99.90
2889;DHT22;1453;42.708;23.282;2022-12-18T12:51:24;4.90;99.90
2889;DHT22;1453;42.708;23.282;2022-12-18T12:53:53;4.90;99.90
2889;DHT22;1453;42.708;23.282;2022-12-18T12:56:21;4.90;99.90
2889;DHT22;1453;42.708;23.282;2022-12-18T13:01:49;4.80;99.90
2889;DHT22;1453;42.708;23.282;2022-12-18T13:07:54;4.90;99.90
2889;DHT22;1453;42.708;23.282;2022-12-18T13:12:57;4.60;99.90
2889;DHT22;1453;42.708;23.282;2022-12-18T13:16:06;4.50;99.90
2889;DHT22;1453;42.708;23.282;2022-12-18T13:18:33;4.50;99.90
2889;DHT22;1453;42.708;23.282;2022-12-18T13:30:59;4.80;99.90
2889;DHT22;1453;42.708;23.282;2022-12-18T13:38:46;4.50;99.90
2889;DHT22;1453;42.708;23.282;2022-12-18T13:43:45;4.70;99.90
2889;DHT22;1453;42.708;23.282;2022-12-18T13:46:24;4.80;99.90
2889;DHT22;1453;42.708;23.282;2022-12-18T13:51:24;4.70;99.90
2889;DHT22;1453;42.708;23.282;2022-12-18T13:53:54;4.60;99.90
2889;DHT22;1453;42.708;23.282;2022-12-18T13:56:25;4.60;99.90
2889;DHT22;1453;42.708;23.282;2022-12-18T14:09:40;4.50;99.90
2889;DHT22;1453;42.708;23.282;2022-12-18T14:12:24;4.40;99.90
2889;DHT22;1453;42.708;23.282;2022-12-18T14:18:09;4.40;99.90
2889;DHT22;1453;42.708;23.282;2022-12-18T14:21:01;4.30;99.90
2889;DHT22;1453;42.708;23.282;2022-12-18T14:23:37;4.30;99.90
2889;DHT22;1453;42.708;23.282;2022-12-18T14:26:26;4.20;99.90
2889;DHT22;1453;42.708;23.282;2022-12-18T14:29:01;4.10;99.90
2889;DHT22;1453;42.708;23.282;2022-12-18T14:31:43;4.20;99.90
2889;DHT22;1453;42.708;23.282;2022-12-18T14:34:15;4.30;99.90
2889;DHT22;1453;42.708;23.282;2022-12-18T14:36:52;4.60;99.90
2889;DHT22;1453;42.708;23.282;2022-12-18T14:39:19;4.70;99.90
2889;DHT22;1453;42.708;23.282;2022-12-18T14:41:45;4.50;99.90
2889;DHT22;1453;42.708;23.282;2022-12-18T14:44:12;4.40;99.90
2889;DHT22;1453;42.708;23.282;2022-12-18T14:46:42;4.30;99.90
2889;DHT22;1453;42.708;23.282;2022-12-18T14:49:32;4.20;99.90
2889;DHT22;1453;42.708;23.282;2022-12-18T14:52:13;4.10;99.90
2889;DHT22;1453;42.708;23.282;2022-12-18T14:54:46;3.90;99.90
2889;DHT22;1453;42.708;23.282;2022-12-18T14:59:48;4.20;99.90
2889;DHT22;1453;42.708;23.282;2022-12-18T15:02:23;4.20;99.90
2889;DHT22;1453;42.708;23.282;2022-12-18T15:05:05;4.30;99.90
2889;DHT22;1453;42.708;23.282;2022-12-18T15:07:42;4.10;99.90
2889;DHT22;1453;42.708;23.282;2022-12-18T15:18:05;3.80;99.90
2889;DHT22;1453;42.708;23.282;2022-12-18T15:23:16;3.80;99.90
2889;DHT22;1453;42.708;23.282;2022-12-18T15:25:44;3.80;99.90
2889;DHT22;1453;42.708;23.282;2022-12-18T15:28:22;3.90;99.90
2889;DHT22;1453;42.708;23.282;2022-12-18T15:34:29;3.80;99.90
2889;DHT22;1453;42.708;23.282;2022-12-18T15:36:40;4.00;99.90
2889;DHT22;1453;42.708;23.282;2022-12-18T15:39:06;3.80;99.90
2889;DHT22;1453;42.708;23.282;2022-12-18T15:41:34;4.00;99.90
2889;DHT22;1453;42.708;23.282;2022-12-18T15:44:00;4.10;99.90
2889;DHT22;1453;42.708;23.282;2022-12-18T15:46:26;4.00;99.90
2889;DHT22;1453;42.708;23.282;2022-12-18T15:48:57;4.20;99.90
2889;DHT22;1453;42.708;23.282;2022-12-18T15:51:26;4.00;99.90
2889;DHT22;1453;42.708;23.282;2022-12-18T15:54:02;4.00;99.90
2889;DHT22;1453;42.708;23.282;2022-12-18T15:56:29;3.80;99.90
2889;DHT22;1453;42.708;23.282;2022-12-18T15:59:16;4.10;99.90
2889;DHT22;1453;42.708;23.282;2022-12-18T16:01:49;4.10;99.90
2889;DHT22;1453;42.708;23.282;2022-12-18T16:04:17;3.80;99.90
2889;DHT22;1453;42.708;23.282;2022-12-18T16:06:46;3.90;99.90
2889;DHT22;1453;42.708;23.282;2022-12-18T16:09:12;4.00;99.90
2889;DHT22;1453;42.708;23.282;2022-12-18T16:11:40;3.80;99.90
2889;DHT22;1453;42.708;23.282;2022-12-18T16:14:22;4.00;99.90
2889;DHT22;1453;42.708;23.282;2022-12-18T16:16:53;3.70;99.90
2889;DHT22;1453;42.708;23.282;2022-12-18T16:19:22;3.70;99.90
2889;DHT22;1453;42.708;23.282;2022-12-18T16:21:50;3.90;99.90
2889;DHT22;1453;42.708;23.282;2022-12-18T16:24:18;3.60;99.90
2889;DHT22;1453;42.708;23.282;2022-12-18T16:26:47;3.80;99.90
2889;DHT22;1453;42.708;23.282;2022-12-18T16:29:14;3.90;99.90
2889;DHT22;1453;42.708;23.282;2022-12-18T16:31:40;3.80;99.90
2889;DHT22;1453;42.708;23.282;2022-12-18T16:34:24;3.90;99.90
2889;DHT22;1453;42.708;23.282;2022-12-18T16:36:58;3.50;99.90
2889;DHT22;1453;42.708;23.282;2022-12-18T16:39:26;3.60;99.90
2889;DHT22;1453;42.708;23.282;2022-12-18T16:41:52;3.60;99.90
2889;DHT22;1453;42.708;23.282;2022-12-18T16:44:18;3.60;99.90
2889;DHT22;1453;42.708;23.282;2022-12-18T16:46:44;3.70;99.90
2889;DHT22;1453;42.708;23.282;2022-12-18T16:49:15;3.60;99.90
2889;DHT22;1453;42.708;23.282;2022-12-18T16:51:41;3.60;99.90
2889;DHT22;1453;42.708;23.282;2022-12-18T16:54:08;3.70;99.90
2889;DHT22;1453;42.708;23.282;2022-12-18T16:56:34;3.70;99.90
2889;DHT22;1453;42.708;23.282;2022-12-18T16:59:01;3.60;99.90
2889;DHT22;1453;42.708;23.282;2022-12-18T17:01:29;3.50;99.90
2889;DHT22;1453;42.708;23.282;2022-12-18T17:03:58;3.50;99.90
2889;DHT22;1453;42.708;23.282;2022-12-18T17:06:26;3.50;99.90
2889;DHT22;1453;42.708;23.282;2022-12-18T17:09:00;3.50;99.90
2889;DHT22;1453;42.708;23.282;2022-12-18T17:11:30;3.50;99.90
2889;DHT22;1453;42.708;23.282;2022-12-18T17:13:57;3.30;99.90
2889;DHT22;1453;42.708;23.282;2022-12-18T17:16:23;3.30;99.90
2889;DHT22;1453;42.708;23.282;2022-12-18T17:18:52;3.40;99.90
2889;DHT22;1453;42.708;23.282;2022-12-18T17:21:18;3.40;99.90
2889;DHT22;1453;42.708;23.282;2022-12-18T17:23:44;3.30;99.90
2889;DHT22;1453;42.708;23.282;2022-12-18T17:26:11;3.30;99.90
2889;DHT22;1453;42.708;23.282;2022-12-18T17:28:39;3.10;99.90
2889;DHT22;1453;42.708;23.282;2022-12-18T17:31:12;3.30;99.90
2889;DHT22;1453;42.708;23.282;2022-12-18T17:33:40;3.10;99.90
2889;DHT22;1453;42.708;23.282;2022-12-18T17:36:06;3.10;99.90
2889;DHT22;1453;42.708;23.282;2022-12-18T17:38:32;3.10;99.90
2889;DHT22;1453;42.708;23.282;2022-12-18T17:41:02;3.20;99.90
2889;DHT22;1453;42.708;23.282;2022-12-18T17:43:29;3.00;99.90
2889;DHT22;1453;42.708;23.282;2022-12-18T17:45:55;3.20;99.90
2889;DHT22;1453;42.708;23.282;2022-12-18T17:48:21;3.20;99.90
2889;DHT22;1453;42.708;23.282;2022-12-18T17:50:47;3.00;99.90
2889;DHT22;1453;42.708;23.282;2022-12-18T17:53:13;3.10;99.90
2889;DHT22;1453;42.708;23.282;2022-12-18T17:55:38;3.20;99.90
2889;DHT22;1453;42.708;23.282;2022-12-18T17:58:04;3.30;99.90
2889;DHT22;1453;42.708;23.282;2022-12-18T18:00:30;3.00;99.90
2889;DHT22;1453;42.708;23.282;2022-12-18T18:02:56;3.10;99.90
2889;DHT22;1453;42.708;23.282;2022-12-18T18:05:21;3.20;99.90
2889;DHT22;1453;42.708;23.282;2022-12-18T18:07:48;3.40;99.90
2889;DHT22;1453;42.708;23.282;2022-12-18T18:10:14;3.50;99.90
2889;DHT22;1453;42.708;23.282;2022-12-18T18:12:40;3.20;99.90
2889;DHT22;1453;42.708;23.282;2022-12-18T18:15:24;2.80;99.90
2889;DHT22;1453;42.708;23.282;2022-12-18T18:17:49;2.70;99.90
2889;DHT22;1453;42.708;23.282;2022-12-18T18:20:15;2.60;99.90
2889;DHT22;1453;42.708;23.282;2022-12-18T18:22:42;2.50;99.90
2889;DHT22;1453;42.708;23.282;2022-12-18T18:25:08;2.60;99.90
2889;DHT22;1453;42.708;23.282;2022-12-18T18:27:34;2.60;99.90
2889;DHT22;1453;42.708;23.282;2022-12-18T18:30:00;2.50;99.90
2889;DHT22;1453;42.708;23.282;2022-12-18T18:32:26;2.60;99.90
2889;DHT22;1453;42.708;23.282;2022-12-18T18:34:51;2.70;99.90
2889;DHT22;1453;42.708;23.282;2022-12-18T18:37:17;2.80;99.90
2889;DHT22;1453;42.708;23.282;2022-12-18T18:39:43;2.80;99.90
2889;DHT22;1453;42.708;23.282;2022-12-18T18:42:09;2.90;99.90
2889;DHT22;1453;42.708;23.282;2022-12-18T18:44:35;2.80;99.90
2889;DHT22;1453;42.708;23.282;2022-12-18T18:47:01;2.80;99.90
2889;DHT22;1453;42.708;23.282;2022-12-18T18:49:27;2.70;99.90
2889;DHT22;1453;42.708;23.282;2022-12-18T18:51:55;2.60;99.90
2889;DHT22;1453;42.708;23.282;2022-12-18T18:54:22;2.50;99.90
2889;DHT22;1453;42.708;23.282;2022-12-18T18:56:48;2.50;99.90
2889;DHT22;1453;42.708;23.282;2022-12-18T18:59:15;2.30;99.90
2889;DHT22;1453;42.708;23.282;2022-12-18T19:01:41;2.40;99.90
2889;DHT22;1453;42.708;23.282;2022-12-18T19:04:07;2.30;99.90